Time;durP1;ratioP1;P1;durP2;ratioP2;P2;SDS_P1;SDS_P2;PMS_P1;PMS_P2;Temp;Humidity;BMP_temperature;BMP_pressure;BME280_temperature;BME280_humidity;BME280_pressure;Samples;Min_cycle;Max_cycle;Signal;HPM_P1;HPM_P2
2023/10/08 00:05:37;;;;;;;8.15;4.28;;;18.20;99.90;;;;;;10051673;28;20092;-71
2023/10/08 00:10:27;;;;;;;8.13;4.25;;;18.20;99.90;;;;;;10045045;28;20140;-72
2023/10/08 00:15:19;;;;;;;6.53;3.42;;;18.30;99.90;;;;;;10049963;28;20063;-72
2023/10/08 00:20:10;;;;;;;7.78;3.58;;;18.20;99.90;;;;;;10058484;28;20544;-72
2023/10/08 00:25:11;;;;;;;7.88;3.63;;;18.10;99.90;;;;;;10047793;28;20030;-71
2023/10/08 00:30:10;;;;;;;9.20;5.55;;;18.00;99.90;;;;;;10048535;28;20068;-70
2023/10/08 00:35:01;;;;;;;5.95;3.38;;;18.10;99.90;;;;;;10042144;28;20035;-70
2023/10/08 00:39:56;;;;;;;8.32;5.15;;;17.90;99.90;;;;;;10046372;28;20037;-71
2023/10/08 00:44:51;;;;;;;7.82;4.00;;;17.90;99.90;;;;;;10049548;28;20037;-71
2023/10/08 00:54:46;;;;;;;8.25;4.65;;;17.80;99.90;;;;;;10036787;28;20037;-71
2023/10/08 00:59:44;;;;;;;7.63;4.25;;;17.70;99.90;;;;;;10049823;28;20041;-71
2023/10/08 01:04:37;;;;;;;9.55;3.92;;;17.60;99.90;;;;;;10046567;28;20087;-70
2023/10/08 01:09:39;;;;;;;6.55;4.15;;;17.60;99.90;;;;;;10030800;28;20057;-71
2023/10/08 01:14:32;;;;;;;6.95;4.32;;;17.60;99.90;;;;;;10050809;28;20053;-70
2023/10/08 01:19:25;;;;;;;6.43;3.38;;;17.60;99.90;;;;;;10047347;28;20025;-71
2023/10/08 01:24:18;;;;;;;9.43;4.10;;;17.50;99.90;;;;;;10044293;28;20022;-71
2023/10/08 01:29:11;;;;;;;6.00;3.55;;;17.50;99.90;;;;;;10049084;28;20075;-71
2023/10/08 01:34:04;;;;;;;5.18;3.10;;;17.50;99.90;;;;;;10044815;28;20040;-71
2023/10/08 01:38:54;;;;;;;8.38;4.22;;;17.50;99.90;;;;;;10040238;28;20042;-71
2023/10/08 01:43:46;;;;;;;5.40;2.70;;;17.50;99.90;;;;;;10041557;28;20030;-71
2023/10/08 01:48:37;;;;;;;8.00;3.42;;;17.40;99.90;;;;;;10028256;28;20030;-71
2023/10/08 01:53:28;;;;;;;7.60;3.10;;;17.40;99.90;;;;;;10030002;28;20495;-72
2023/10/08 01:58:19;;;;;;;9.93;4.00;;;17.30;99.90;;;;;;10040375;28;20037;-71
2023/10/08 02:03:09;;;;;;;8.93;3.25;;;17.30;99.90;;;;;;10032656;28;20026;-71
2023/10/08 02:08:03;;;;;;;6.28;3.10;;;17.30;99.90;;;;;;10041520;28;20068;-71
2023/10/08 02:12:54;;;;;;;10.27;3.63;;;17.20;99.90;;;;;;10034323;28;20451;-71
2023/10/08 02:17:44;;;;;;;7.40;3.00;;;17.20;99.90;;;;;;10031891;28;20046;-71
2023/10/08 02:22:35;;;;;;;7.00;3.13;;;17.10;99.90;;;;;;10047889;28;20438;-71
2023/10/08 02:27:27;;;;;;;6.82;3.53;;;17.10;99.90;;;;;;10028702;28;20193;-71
2023/10/08 02:32:18;;;;;;;6.22;3.50;;;17.20;99.90;;;;;;10041303;28;20454;-70
2023/10/08 02:37:10;;;;;;;7.82;3.88;;;17.00;99.90;;;;;;10045305;28;20033;-72
2023/10/08 02:42:02;;;;;;;7.55;3.28;;;17.00;99.90;;;;;;10049546;28;20029;-71
2023/10/08 02:46:52;;;;;;;5.47;3.75;;;17.00;99.90;;;;;;10035777;28;20033;-71
2023/10/08 02:51:44;;;;;;;7.22;4.32;;;16.90;99.90;;;;;;10037868;28;20030;-70
2023/10/08 02:56:35;;;;;;;7.97;3.80;;;16.90;99.90;;;;;;10042751;28;20065;-71
2023/10/08 03:01:26;;;;;;;4.68;3.20;;;17.00;99.90;;;;;;10051737;28;20026;-72
2023/10/08 03:06:20;;;;;;;5.78;3.10;;;16.80;99.90;;;;;;10045759;28;20055;-71
2023/10/08 03:11:17;;;;;;;7.47;4.43;;;16.80;99.90;;;;;;10032879;28;20125;-71
2023/10/08 03:16:08;;;;;;;6.35;3.40;;;16.80;99.90;;;;;;10037806;28;20053;-70
2023/10/08 03:21:03;;;;;;;6.20;3.78;;;16.80;99.90;;;;;;10040416;28;20439;-70
2023/10/08 03:31:17;;;;;;;5.43;3.10;;;16.70;99.90;;;;;;10049604;28;20038;-71
2023/10/08 03:36:20;;;;;;;6.35;2.88;;;16.70;99.90;;;;;;10053033;28;20120;-70
2023/10/08 03:41:16;;;;;;;7.95;3.90;;;16.70;99.90;;;;;;10056903;28;20431;-71
2023/10/08 03:46:07;;;;;;;9.00;4.45;;;16.60;99.90;;;;;;10048384;28;20120;-71
2023/10/08 03:51:06;;;;;;;6.55;4.05;;;16.60;99.90;;;;;;10039796;28;20116;-71
2023/10/08 03:56:00;;;;;;;7.75;3.72;;;16.70;99.90;;;;;;10038428;28;20038;-70
2023/10/08 04:01:03;;;;;;;5.07;2.63;;;16.60;99.90;;;;;;10052127;28;20172;-72
2023/10/08 04:06:14;;;;;;;6.72;3.22;;;16.60;99.90;;;;;;10041372;28;20041;-71
2023/10/08 04:11:07;;;;;;;5.22;2.95;;;16.40;99.90;;;;;;10053110;28;20046;-71
2023/10/08 04:15:58;;;;;;;5.72;2.63;;;16.40;99.90;;;;;;10047477;28;20042;-71
2023/10/08 04:21:04;;;;;;;11.80;3.92;;;16.40;99.90;;;;;;10043820;28;20472;-71
2023/10/08 04:25:55;;;;;;;6.13;3.63;;;16.40;99.90;;;;;;10058754;28;20029;-71
2023/10/08 04:30:53;;;;;;;4.68;2.92;;;16.40;99.90;;;;;;10047994;28;20483;-71
2023/10/08 04:36:01;;;;;;;4.97;2.60;;;16.30;99.90;;;;;;10037200;28;20062;-71
2023/10/08 04:40:53;;;;;;;4.47;2.78;;;16.20;99.90;;;;;;10047896;28;20029;-71
2023/10/08 04:45:43;;;;;;;5.63;2.92;;;16.10;99.90;;;;;;10042153;28;20439;-72
2023/10/08 04:50:36;;;;;;;7.57;3.05;;;16.10;99.90;;;;;;10030986;28;20041;-71
2023/10/08 04:55:29;;;;;;;7.20;3.50;;;16.10;99.90;;;;;;10032196;28;20029;-71
2023/10/08 05:00:40;;;;;;;5.75;3.60;;;16.00;99.90;;;;;;10046644;28;20084;-71
2023/10/08 05:05:50;;;;;;;4.50;2.70;;;16.10;99.90;;;;;;10038731;28;20229;-71
2023/10/08 05:11:01;;;;;;;5.97;2.97;;;16.10;99.90;;;;;;10036890;28;20049;-72
2023/10/08 05:21:04;;;;;;;5.43;2.72;;;16.00;99.90;;;;;;10038144;28;20096;-71
2023/10/08 05:26:09;;;;;;;6.30;3.45;;;16.00;99.90;;;;;;10055604;28;20029;-71
2023/10/08 05:36:17;;;;;;;5.10;3.22;;;15.90;99.90;;;;;;10036767;28;20041;-71
2023/10/08 05:41:28;;;;;;;5.72;3.50;;;15.70;99.90;;;;;;10043420;28;20391;-71
2023/10/08 05:51:33;;;;;;;5.22;2.92;;;15.80;99.90;;;;;;10032855;28;20034;-71
2023/10/08 05:56:42;;;;;;;4.30;3.10;;;15.80;99.90;;;;;;10046104;28;20427;-70
2023/10/08 06:01:44;;;;;;;6.53;3.00;;;15.80;99.90;;;;;;10041359;28;20112;-71
2023/10/08 06:06:37;;;;;;;4.68;2.75;;;15.80;99.90;;;;;;10043352;28;20037;-71
2023/10/08 06:11:41;;;;;;;5.38;3.05;;;15.80;99.90;;;;;;10028570;28;20152;-71
2023/10/08 06:16:41;;;;;;;5.55;3.25;;;15.80;99.90;;;;;;10037682;28;20046;-71
2023/10/08 06:21:33;;;;;;;6.25;3.60;;;15.80;99.90;;;;;;10042814;28;20018;-71
2023/10/08 06:26:25;;;;;;;4.05;3.30;;;15.80;99.90;;;;;;10041568;28;20030;-71
2023/10/08 06:31:24;;;;;;;4.15;2.38;;;15.80;99.90;;;;;;10036506;28;20022;-71
2023/10/08 06:36:15;;;;;;;5.07;2.92;;;15.90;99.90;;;;;;10037490;28;20572;-72
2023/10/08 06:46:12;;;;;;;4.85;2.83;;;15.80;99.90;;;;;;10046839;28;20026;-70
2023/10/08 06:51:12;;;;;;;6.85;3.63;;;15.90;99.90;;;;;;10025941;28;20495;-71
2023/10/08 06:56:06;;;;;;;5.13;2.60;;;15.90;99.90;;;;;;10032765;28;20042;-71
2023/10/08 07:00:58;;;;;;;5.47;2.35;;;15.90;99.90;;;;;;10033741;28;20036;-71
2023/10/08 07:05:59;;;;;;;4.97;2.95;;;15.80;99.90;;;;;;10043874;28;20522;-71
2023/10/08 07:10:56;;;;;;;7.78;3.33;;;15.80;99.90;;;;;;10027458;28;20057;-71
2023/10/08 07:15:50;;;;;;;4.63;2.28;;;15.70;99.90;;;;;;10048622;28;20061;-71
2023/10/08 07:20:45;;;;;;;9.35;4.38;;;15.80;99.90;;;;;;10047277;28;20068;-73
2023/10/08 07:25:37;;;;;;;6.32;3.22;;;15.90;99.90;;;;;;10045250;28;20034;-70
2023/10/08 07:30:32;;;;;;;6.85;3.25;;;15.90;99.90;;;;;;10037830;28;20028;-70
2023/10/08 07:35:29;;;;;;;7.87;3.43;;;15.90;99.90;;;;;;10042378;28;20041;-71
2023/10/08 07:40:20;;;;;;;7.43;3.75;;;15.90;99.90;;;;;;10048721;28;20513;-71
2023/10/08 07:45:17;;;;;;;5.70;3.10;;;16.00;99.90;;;;;;10051934;28;20028;-71
2023/10/08 07:50:12;;;;;;;4.70;2.97;;;16.10;99.90;;;;;;10033329;28;20572;-71
2023/10/08 07:55:04;;;;;;;7.95;2.90;;;16.30;99.90;;;;;;10041192;28;20100;-71
2023/10/08 07:59:56;;;;;;;7.93;3.20;;;16.20;99.90;;;;;;10044070;28;20053;-71
2023/10/08 08:04:52;;;;;;;8.50;3.47;;;16.40;99.90;;;;;;10051518;28;20079;-70
2023/10/08 08:09:50;;;;;;;6.53;3.30;;;16.30;99.90;;;;;;10039178;28;20038;-71
2023/10/08 08:14:41;;;;;;;7.47;3.80;;;16.40;99.90;;;;;;10053343;28;20052;-71
2023/10/08 08:19:35;;;;;;;9.32;3.17;;;16.40;99.90;;;;;;10049962;28;20045;-70
2023/10/08 08:24:34;;;;;;;6.20;3.20;;;16.50;99.90;;;;;;10054555;28;20045;-71
2023/10/08 08:29:25;;;;;;;4.88;2.88;;;16.50;99.90;;;;;;10047795;28;20033;-71
2023/10/08 08:34:19;;;;;;;7.32;2.78;;;16.50;99.90;;;;;;10035495;28;20494;-71
2023/10/08 08:39:10;;;;;;;4.20;2.30;;;16.60;99.90;;;;;;10050130;28;20048;-71
2023/10/08 08:44:06;;;;;;;7.25;3.17;;;16.60;99.90;;;;;;10051597;28;20108;-71
2023/10/08 08:49:11;;;;;;;7.38;2.88;;;16.70;99.90;;;;;;10036317;28;20033;-71
2023/10/08 08:54:08;;;;;;;5.23;3.10;;;16.80;99.90;;;;;;10040826;28;20054;-71
2023/10/08 08:59:00;;;;;;;8.50;3.30;;;16.80;99.90;;;;;;10055003;28;20052;-71
2023/10/08 09:03:51;;;;;;;5.72;2.58;;;16.90;99.90;;;;;;10044251;28;20032;-72
2023/10/08 09:08:45;;;;;;;7.95;3.00;;;16.90;99.90;;;;;;10049148;28;20069;-72
2023/10/08 09:13:36;;;;;;;8.25;4.13;;;17.00;99.90;;;;;;10042452;28;20067;-73
2023/10/08 09:18:27;;;;;;;6.05;2.75;;;17.10;99.90;;;;;;10040187;28;20041;-71
2023/10/08 09:23:21;;;;;;;8.45;3.40;;;17.10;99.90;;;;;;10042595;28;20107;-72
2023/10/08 09:28:15;;;;;;;6.83;3.00;;;17.20;99.90;;;;;;10051941;28;20183;-72
2023/10/08 09:33:07;;;;;;;5.05;2.30;;;17.30;99.90;;;;;;10044671;28;20030;-71
2023/10/08 09:37:58;;;;;;;11.32;3.30;;;17.40;99.90;;;;;;10035255;28;20052;-71
2023/10/08 09:42:50;;;;;;;6.90;2.80;;;17.40;99.90;;;;;;10049802;28;20028;-72
2023/10/08 09:47:47;;;;;;;5.40;2.50;;;17.40;99.90;;;;;;10034363;28;20033;-72
2023/10/08 09:53:16;;;;;;;5.57;2.10;;;17.50;99.90;;;;;;10041572;28;20029;-72
2023/10/08 09:58:13;;;;;;;5.22;2.50;;;17.70;99.90;;;;;;10034769;28;20069;-72
2023/10/08 10:03:04;;;;;;;4.63;3.13;;;17.60;99.90;;;;;;10041617;28;20034;-72
2023/10/08 10:07:56;;;;;;;5.63;2.60;;;17.70;99.90;;;;;;10042994;28;20053;-72
2023/10/08 10:12:48;;;;;;;6.47;2.75;;;17.70;99.90;;;;;;10030306;28;20077;-71
2023/10/08 10:17:39;;;;;;;4.40;2.47;;;17.90;99.90;;;;;;10038209;28;20414;-71
2023/10/08 10:22:35;;;;;;;6.78;3.17;;;18.00;99.90;;;;;;10047830;28;20076;-71
2023/10/08 10:27:26;;;;;;;3.13;1.98;;;18.00;99.90;;;;;;10028432;28;20030;-72
2023/10/08 10:32:18;;;;;;;6.03;2.65;;;18.10;99.90;;;;;;10042564;28;20083;-71
2023/10/08 10:37:19;;;;;;;4.93;2.70;;;18.10;99.90;;;;;;10055220;28;20064;-71
2023/10/08 10:42:22;;;;;;;4.47;2.05;;;18.20;99.90;;;;;;10062849;28;20021;-71
2023/10/08 10:52:06;;;;;;;9.40;3.08;;;18.30;99.90;;;;;;10057387;28;20497;-71
2023/10/08 10:57:03;;;;;;;5.25;2.22;;;18.40;99.90;;;;;;10052191;28;20045;-71
2023/10/08 11:02:42;;;;;;;4.78;2.40;;;18.50;99.90;;;;;;10050104;28;20042;-71
2023/10/08 11:07:06;;;;;;;5.43;2.30;;;18.50;99.90;;;;;;10050954;28;20065;-72
2023/10/08 11:11:59;;;;;;;5.65;2.22;;;18.50;99.90;;;;;;10037355;28;20037;-72
2023/10/08 11:16:51;;;;;;;5.75;2.53;;;18.60;99.90;;;;;;10046092;28;20386;-71
2023/10/08 11:21:56;;;;;;;10.30;3.15;;;18.70;99.90;;;;;;10058104;28;20030;-71
2023/10/08 11:27:02;;;;;;;9.25;2.88;;;18.70;99.90;;;;;;10041237;28;20037;-70
2023/10/08 11:31:53;;;;;;;6.10;2.67;;;18.70;99.90;;;;;;10057117;28;20029;-71
2023/10/08 11:36:52;;;;;;;7.40;2.40;;;18.70;99.90;;;;;;10050663;28;20055;-72
2023/10/08 11:41:52;;;;;;;3.30;1.85;;;18.80;99.90;;;;;;10059957;28;20053;-71
2023/10/08 11:46:51;;;;;;;4.47;2.35;;;18.90;99.90;;;;;;10064875;28;20028;-70
2023/10/08 11:51:41;;;;;;;5.57;2.78;;;19.00;99.90;;;;;;10029410;28;20045;-71
2023/10/08 11:56:33;;;;;;;5.40;2.55;;;19.10;99.90;;;;;;10053854;28;20040;-72
2023/10/08 12:01:24;;;;;;;3.72;2.13;;;19.20;99.90;;;;;;10049126;28;20069;-72
2023/10/08 12:06:18;;;;;;;7.45;1.98;;;19.20;99.90;;;;;;10049337;28;20026;-72
2023/10/08 12:11:11;;;;;;;4.53;2.53;;;19.30;99.90;;;;;;10036191;28;20065;-71
2023/10/08 12:16:12;;;;;;;5.00;2.67;;;19.40;99.90;;;;;;10048171;28;20037;-73
2023/10/08 12:21:03;;;;;;;4.97;2.67;;;19.60;99.90;;;;;;10050157;28;20107;-71
2023/10/08 12:25:55;;;;;;;6.72;3.20;;;19.70;99.90;;;;;;10044771;28;20064;-71
2023/10/08 12:30:49;;;;;;;10.45;2.72;;;19.90;99.90;;;;;;10048898;28;20022;-71
2023/10/08 12:35:40;;;;;;;5.85;2.30;;;20.00;99.90;;;;;;10040964;28;20125;-71
2023/10/08 12:40:47;;;;;;;4.13;2.08;;;20.20;99.90;;;;;;10045982;28;20497;-71
2023/10/08 12:45:38;;;;;;;3.88;2.20;;;20.20;99.90;;;;;;10056911;28;20088;-70
2023/10/08 12:50:29;;;;;;;5.00;2.20;;;20.40;99.90;;;;;;10033805;28;20458;-72
2023/10/08 12:55:26;;;;;;;3.40;2.03;;;20.60;99.90;;;;;;10049722;28;20066;-71
2023/10/08 13:00:17;;;;;;;6.78;2.55;;;20.60;99.90;;;;;;10043330;28;20081;-71
2023/10/08 13:05:15;;;;;;;6.05;2.88;;;20.70;99.90;;;;;;10048210;28;20030;-71
2023/10/08 13:10:07;;;;;;;6.95;2.58;;;20.80;99.90;;;;;;10043792;28;20495;-71
2023/10/08 13:15:01;;;;;;;5.22;1.98;;;20.90;99.90;;;;;;10044675;28;20141;-71
2023/10/08 13:19:52;;;;;;;5.88;2.90;;;21.00;99.90;;;;;;10049085;28;20049;-71
2023/10/08 13:24:44;;;;;;;5.45;2.03;;;21.00;99.90;;;;;;10041585;28;20117;-71
2023/10/08 13:29:35;;;;;;;5.15;2.78;;;21.10;99.90;;;;;;10037943;28;20041;-71
2023/10/08 13:34:26;;;;;;;3.17;1.90;;;21.20;99.90;;;;;;10030054;28;20037;-71
2023/10/08 13:39:21;;;;;;;4.85;2.22;;;21.30;99.90;;;;;;10041813;28;20045;-72
2023/10/08 13:44:12;;;;;;;5.55;2.88;;;21.40;99.90;;;;;;10043179;28;20419;-71
2023/10/08 13:49:05;;;;;;;8.20;3.10;;;21.50;99.90;;;;;;10024955;28;20030;-71
2023/10/08 13:53:59;;;;;;;6.75;3.05;;;21.70;99.90;;;;;;10037198;28;20022;-71
2023/10/08 13:58:51;;;;;;;8.88;2.78;;;21.70;99.80;;;;;;10038953;28;20041;-71
2023/10/08 14:03:42;;;;;;;5.63;3.15;;;21.90;99.70;;;;;;10038201;28;20044;-71
2023/10/08 14:08:32;;;;;;;6.13;2.30;;;21.90;99.60;;;;;;10043633;28;20072;-71
2023/10/08 14:13:24;;;;;;;7.30;2.15;;;21.90;99.50;;;;;;10032455;28;20487;-71
2023/10/08 14:18:25;;;;;;;7.35;2.60;;;21.90;99.50;;;;;;10036410;28;20057;-71
2023/10/08 14:23:16;;;;;;;6.32;2.72;;;22.00;99.40;;;;;;10042178;28;20025;-72
2023/10/08 14:28:08;;;;;;;6.43;2.50;;;22.10;99.40;;;;;;10032542;28;20074;-71
2023/10/08 14:32:59;;;;;;;9.52;3.67;;;22.10;99.30;;;;;;10040359;28;20033;-71
2023/10/08 14:43:02;;;;;;;4.45;2.22;;;22.30;99.10;;;;;;10040240;28;20037;-71
2023/10/08 14:47:55;;;;;;;9.13;2.92;;;22.50;99.00;;;;;;10041936;28;20030;-71
2023/10/08 14:52:46;;;;;;;7.28;2.80;;;22.60;98.90;;;;;;10038125;28;20450;-71
2023/10/08 14:57:37;;;;;;;5.88;3.15;;;22.80;98.90;;;;;;10035062;28;20097;-71
2023/10/08 15:02:29;;;;;;;4.47;2.80;;;23.00;98.80;;;;;;10042986;28;20028;-71
2023/10/08 15:07:20;;;;;;;8.13;3.83;;;23.10;98.70;;;;;;10036610;28;20140;-71
2023/10/08 15:12:10;;;;;;;6.93;3.38;;;23.20;98.60;;;;;;10032765;28;20120;-71
2023/10/08 15:17:01;;;;;;;8.80;2.83;;;23.30;98.50;;;;;;10042005;28;20491;-71
2023/10/08 15:21:52;;;;;;;10.13;3.85;;;23.40;98.50;;;;;;10039891;28;20384;-71
2023/10/08 15:26:43;;;;;;;7.93;3.40;;;23.40;98.40;;;;;;10043346;28;20079;-71
2023/10/08 15:31:34;;;;;;;5.30;3.13;;;23.40;98.40;;;;;;10050248;28;20030;-71
2023/10/08 15:36:26;;;;;;;6.65;2.72;;;23.40;98.40;;;;;;10044069;28;20063;-71
2023/10/08 15:41:19;;;;;;;12.15;3.75;;;23.40;98.30;;;;;;10051950;28;20064;-71
2023/10/08 15:46:11;;;;;;;9.25;3.88;;;23.40;98.30;;;;;;10047423;28;20044;-73
2023/10/08 15:51:02;;;;;;;11.35;4.53;;;23.40;98.20;;;;;;10042598;28;20045;-70
2023/10/08 15:55:53;;;;;;;11.18;5.43;;;23.40;98.20;;;;;;10062912;28;20041;-72
2023/10/08 16:00:44;;;;;;;10.27;5.25;;;23.30;98.30;;;;;;10051699;28;20114;-71
2023/10/08 16:05:35;;;;;;;12.55;8.00;;;23.20;98.40;;;;;;10042680;28;20104;-72
2023/10/08 16:10:28;;;;;;;10.68;6.50;;;23.10;98.40;;;;;;10038490;28;20094;-71
2023/10/08 16:15:21;;;;;;;15.30;7.40;;;23.10;98.30;;;;;;10055848;28;20406;-71
2023/10/08 16:20:15;;;;;;;16.00;5.93;;;23.00;98.20;;;;;;10047716;28;20048;-71
2023/10/08 16:25:07;;;;;;;9.75;5.82;;;23.00;98.20;;;;;;10027577;28;20029;-71
2023/10/08 16:29:57;;;;;;;11.57;5.40;;;22.90;98.10;;;;;;10035107;28;20045;-71
2023/10/08 16:34:49;;;;;;;9.30;5.78;;;22.90;98.10;;;;;;10035744;28;20432;-73
2023/10/08 16:39:40;;;;;;;9.68;4.38;;;22.80;98.10;;;;;;10046878;28;20426;-71
2023/10/08 16:44:31;;;;;;;12.40;5.30;;;22.80;98.10;;;;;;10056035;28;20022;-71
2023/10/08 16:49:24;;;;;;;10.90;5.05;;;22.70;98.10;;;;;;10041547;28;20033;-72
2023/10/08 16:54:15;;;;;;;11.90;5.60;;;22.70;98.20;;;;;;10047364;28;20407;-71
2023/10/08 16:59:07;;;;;;;9.30;5.20;;;22.70;98.20;;;;;;10055912;28;20106;-72
2023/10/08 17:03:57;;;;;;;12.50;4.90;;;22.70;98.20;;;;;;10066978;28;20021;-72
2023/10/08 17:08:48;;;;;;;18.58;8.02;;;22.70;98.20;;;;;;10057606;28;20423;-72
2023/10/08 17:13:42;;;;;;;14.50;6.47;;;22.50;98.20;;;;;;10063636;28;20032;-72
2023/10/08 17:18:34;;;;;;;16.47;6.53;;;22.50;98.40;;;;;;10065033;28;20041;-72
2023/10/08 17:23:25;;;;;;;15.23;6.55;;;22.50;98.50;;;;;;10059217;28;20021;-73
2023/10/08 17:28:18;;;;;;;15.07;6.68;;;22.40;98.50;;;;;;10049287;28;20398;-71
2023/10/08 17:33:09;;;;;;;14.43;7.20;;;22.50;98.60;;;;;;10062617;28;20051;-72
2023/10/08 17:38:05;;;;;;;10.68;5.43;;;22.50;98.70;;;;;;10058746;28;20039;-71
2023/10/08 17:42:56;;;;;;;10.20;5.45;;;22.50;98.80;;;;;;10058874;28;20483;-71
2023/10/08 17:47:47;;;;;;;10.77;6.22;;;22.50;98.90;;;;;;10063352;28;20569;-72
2023/10/08 17:52:38;;;;;;;12.32;5.80;;;22.50;99.00;;;;;;10049343;28;20029;-74
2023/10/08 17:57:29;;;;;;;13.32;5.75;;;22.50;99.00;;;;;;10060523;28;20039;-74
2023/10/08 18:02:20;;;;;;;18.98;8.30;;;22.50;99.10;;;;;;10064618;28;20091;-71
2023/10/08 18:07:11;;;;;;;16.38;7.70;;;22.40;99.10;;;;;;10047743;28;20458;-72
2023/10/08 18:12:02;;;;;;;17.85;6.80;;;22.40;99.20;;;;;;10054731;28;20080;-71
2023/10/08 18:16:54;;;;;;;15.50;6.95;;;22.30;99.20;;;;;;10064358;28;20033;-72
2023/10/08 18:21:44;;;;;;;19.02;6.85;;;22.20;99.30;;;;;;10064084;28;20037;-75
2023/10/08 18:26:41;;;;;;;19.60;7.38;;;22.20;99.50;;;;;;10064995;28;20029;-71
2023/10/08 18:31:33;;;;;;;17.63;9.18;;;22.20;99.50;;;;;;10066560;28;20045;-73
2023/10/08 18:36:26;;;;;;;14.97;8.33;;;22.20;99.60;;;;;;10063076;28;20172;-71
2023/10/08 18:41:17;;;;;;;20.02;7.88;;;22.10;99.60;;;;;;10064835;28;20029;-70
2023/10/08 18:46:11;;;;;;;23.73;9.73;;;22.10;99.70;;;;;;10070414;28;20029;-73
2023/10/08 18:51:10;;;;;;;20.42;9.82;;;22.10;99.80;;;;;;10046988;28;20120;-81
2023/10/08 18:56:07;;;;;;;18.42;8.73;;;22.00;99.90;;;;;;10054958;28;20045;-79
2023/10/08 19:00:58;;;;;;;18.40;6.85;;;22.00;99.90;;;;;;10075725;28;20083;-79
2023/10/08 19:05:48;;;;;;;13.18;7.25;;;22.00;99.90;;;;;;10079206;28;20045;-80
2023/10/08 19:10:39;;;;;;;13.73;6.95;;;22.00;99.90;;;;;;10074296;28;20453;-80
2023/10/08 19:15:30;;;;;;;13.55;6.43;;;21.90;99.90;;;;;;10067394;28;20085;-81
2023/10/08 19:20:22;;;;;;;11.65;6.50;;;21.90;99.90;;;;;;10067969;28;20533;-79
2023/10/08 19:25:13;;;;;;;16.63;7.50;;;21.80;99.90;;;;;;10081537;28;20034;-82
2023/10/08 19:30:06;;;;;;;14.27;5.65;;;21.80;99.90;;;;;;10082842;28;20036;-79
2023/10/08 19:34:59;;;;;;;12.98;6.75;;;21.80;99.90;;;;;;10066673;28;20116;-78
2023/10/08 19:39:50;;;;;;;17.15;7.00;;;21.80;99.90;;;;;;10058424;28;20041;-79
2023/10/08 19:44:40;;;;;;;16.17;7.07;;;21.70;99.90;;;;;;10059801;28;20076;-80
2023/10/08 19:49:31;;;;;;;13.75;6.25;;;21.70;99.90;;;;;;10049773;28;20036;-79
2023/10/08 19:54:22;;;;;;;13.50;5.53;;;21.70;99.90;;;;;;10064852;28;20386;-80
2023/10/08 19:59:12;;;;;;;16.95;7.00;;;21.60;99.90;;;;;;10062695;28;20046;-75
2023/10/08 20:04:03;;;;;;;14.40;6.88;;;21.60;99.90;;;;;;10061343;28;20034;-79
2023/10/08 20:08:54;;;;;;;16.83;7.18;;;21.40;99.90;;;;;;10055140;28;20069;-78
2023/10/08 20:13:47;;;;;;;20.35;6.97;;;21.40;99.90;;;;;;10075763;28;20026;-80
2023/10/08 20:18:38;;;;;;;14.52;6.38;;;21.30;99.90;;;;;;10070337;28;20048;-77
2023/10/08 20:23:34;;;;;;;12.82;5.60;;;21.30;99.90;;;;;;10064332;28;20036;-77
2023/10/08 20:28:26;;;;;;;15.63;6.75;;;21.40;99.90;;;;;;10069550;28;20111;-78
2023/10/08 20:33:19;;;;;;;11.77;5.63;;;21.30;99.90;;;;;;10045736;28;20400;-76
2023/10/08 20:38:13;;;;;;;16.13;6.30;;;21.20;99.90;;;;;;10053862;28;20502;-78
2023/10/08 20:43:05;;;;;;;16.17;5.47;;;21.10;99.90;;;;;;10064395;28;20445;-78
2023/10/08 20:47:57;;;;;;;17.67;7.05;;;20.90;99.90;;;;;;10044669;28;20088;-77
2023/10/08 20:52:51;;;;;;;11.30;6.22;;;20.90;99.90;;;;;;10052230;28;20329;-77
2023/10/08 20:57:46;;;;;;;14.32;5.68;;;20.90;99.90;;;;;;10053695;28;20412;-77
2023/10/08 21:02:36;;;;;;;13.82;6.10;;;20.70;99.90;;;;;;10062235;28;20059;-78
2023/10/08 21:07:29;;;;;;;17.73;5.35;;;20.70;99.90;;;;;;10052979;28;20038;-79
2023/10/08 21:12:21;;;;;;;12.77;5.65;;;20.80;99.90;;;;;;10047196;28;20013;-77
2023/10/08 21:17:12;;;;;;;13.05;6.35;;;20.70;99.90;;;;;;10058555;28;20038;-77
2023/10/08 21:22:03;;;;;;;14.98;5.93;;;20.70;99.90;;;;;;10049064;28;20424;-77
2023/10/08 21:26:54;;;;;;;10.05;4.97;;;20.70;99.90;;;;;;10036035;28;20042;-78
2023/10/08 21:31:46;;;;;;;11.00;4.82;;;20.60;99.90;;;;;;10057045;28;20025;-76
2023/10/08 21:36:37;;;;;;;13.68;5.45;;;20.50;99.90;;;;;;10027961;28;20084;-76
2023/10/08 21:41:28;;;;;;;9.57;4.43;;;20.50;99.90;;;;;;10049329;28;20025;-76
2023/10/08 21:46:21;;;;;;;8.95;4.15;;;20.50;99.90;;;;;;10044674;28;20038;-76
2023/10/08 21:51:12;;;;;;;7.47;4.15;;;20.40;99.90;;;;;;10034904;28;20028;-76
2023/10/08 21:56:06;;;;;;;13.23;3.88;;;20.40;99.90;;;;;;10040122;28;20025;-76
2023/10/08 22:01:08;;;;;;;9.83;4.10;;;20.40;99.90;;;;;;10053116;28;20033;-76
2023/10/08 22:06:01;;;;;;;14.30;4.38;;;20.30;99.90;;;;;;10051878;28;20025;-76
2023/10/08 22:10:52;;;;;;;9.25;3.25;;;20.30;99.90;;;;;;10063257;28;20522;-77
2023/10/08 22:15:49;;;;;;;14.82;4.90;;;20.30;99.90;;;;;;10054690;28;20095;-77
2023/10/08 22:20:43;;;;;;;9.93;3.92;;;20.20;99.90;;;;;;10046268;28;20030;-76
2023/10/08 22:25:36;;;;;;;9.43;3.92;;;20.20;99.90;;;;;;10043972;28;20026;-77
2023/10/08 22:30:27;;;;;;;12.27;4.03;;;20.10;99.90;;;;;;10059875;28;20029;-78
2023/10/08 22:35:18;;;;;;;10.98;4.07;;;20.10;99.90;;;;;;10055804;28;20030;-75
2023/10/08 22:40:15;;;;;;;11.93;4.18;;;20.10;99.90;;;;;;10061032;28;20041;-76
2023/10/08 22:45:06;;;;;;;7.57;3.13;;;20.00;99.90;;;;;;10049129;28;20510;-74
2023/10/08 22:49:58;;;;;;;7.65;4.75;;;19.90;99.90;;;;;;10046649;28;20256;-76
2023/10/08 22:54:51;;;;;;;10.32;3.28;;;19.90;99.90;;;;;;10051034;28;20040;-74
2023/10/08 22:59:41;;;;;;;10.88;3.33;;;19.90;99.90;;;;;;10059365;28;20921;-74
2023/10/08 23:04:33;;;;;;;10.77;3.47;;;19.80;99.90;;;;;;10052191;28;20029;-73
2023/10/08 23:09:25;;;;;;;8.82;4.43;;;19.80;99.90;;;;;;10051415;28;20128;-73
2023/10/08 23:14:18;;;;;;;10.40;3.70;;;19.70;99.90;;;;;;10046420;28;20453;-76
2023/10/08 23:19:12;;;;;;;16.55;5.88;;;19.60;99.90;;;;;;10044064;28;20042;-75
2023/10/08 23:24:06;;;;;;;11.48;3.95;;;19.60;99.90;;;;;;10042851;28;20470;-76
2023/10/08 23:28:58;;;;;;;13.05;3.97;;;19.60;99.90;;;;;;10038548;28;20067;-76
2023/10/08 23:33:49;;;;;;;10.98;4.15;;;19.50;99.90;;;;;;10041023;28;20042;-76
2023/10/08 23:38:41;;;;;;;10.07;4.40;;;19.50;99.90;;;;;;10046791;28;20049;-75
2023/10/08 23:43:33;;;;;;;10.32;3.83;;;19.40;99.90;;;;;;10052724;28;20018;-74
2023/10/08 23:48:29;;;;;;;9.98;3.75;;;19.30;99.90;;;;;;10039931;28;20030;-74
2023/10/08 23:53:30;;;;;;;11.55;3.80;;;19.30;99.90;;;;;;10042366;28;20028;-74
2023/10/08 23:58:24;;;;;;;9.20;2.90;;;19.20;99.90;;;;;;10044836;28;20041;-74
